createdAt,value
2022-11-12T00:12:26.017Z,10.50
2022-11-12T00:14:53.683Z,10.80
2022-11-12T00:17:22.078Z,10.90
2022-11-12T00:19:49.820Z,10.90
2022-11-12T00:22:17.076Z,11.00
2022-11-12T00:24:44.674Z,11.10
2022-11-12T00:27:12.110Z,11.00
2022-11-12T00:34:46.950Z,10.80
2022-11-12T00:37:14.625Z,10.20
2022-11-12T00:39:41.894Z,10.20
2022-11-12T00:42:09.447Z,10.20
2022-11-12T00:44:37.176Z,10.40
2022-11-12T00:47:04.599Z,10.50
2022-11-12T00:49:34.308Z,10.40
2022-11-12T00:57:05.949Z,10.30
2022-11-12T00:59:33.468Z,9.70
2022-11-12T01:02:01.424Z,9.50
2022-11-12T01:04:29.077Z,9.60
2022-11-12T01:06:56.834Z,9.60
2022-11-12T01:09:24.160Z,9.40
2022-11-12T01:11:51.757Z,9.20
2022-11-12T01:17:07.185Z,9.60
2022-11-12T01:19:35.705Z,9.80
2022-11-12T01:22:03.034Z,9.90
2022-11-12T01:24:30.435Z,9.20
2022-11-12T01:26:57.938Z,9.30
2022-11-12T01:29:26.743Z,9.50
2022-11-12T01:31:54.361Z,9.70
2022-11-12T01:34:23.155Z,10.00
2022-11-12T01:41:55.227Z,10.20
2022-11-12T01:44:24.405Z,10.40
2022-11-12T01:47:07.116Z,10.40
2022-11-12T01:49:40.156Z,10.60
2022-11-12T01:52:18.275Z,10.80
2022-11-12T01:54:49.527Z,10.80
2022-11-12T01:57:23.904Z,10.60
2022-11-12T02:03:22.945Z,9.60
2022-11-12T02:05:58.941Z,9.70
2022-11-12T02:16:06.207Z,9.70
2022-11-12T02:18:37.715Z,9.80
2022-11-12T02:21:13.908Z,9.90
2022-11-12T02:23:44.148Z,10.10
2022-11-12T02:26:39.127Z,10.20
2022-11-12T02:34:08.096Z,10.00
2022-11-12T02:40:15.305Z,10.20
2022-11-12T02:43:05.733Z,10.00
2022-11-12T02:45:42.965Z,9.60
2022-11-12T02:48:12.971Z,9.80
2022-11-12T02:51:09.174Z,10.10
2022-11-12T02:54:03.815Z,10.30
2022-11-12T03:04:34.985Z,10.40
2022-11-12T03:09:50.666Z,10.30
2022-11-12T03:12:18.325Z,10.30
2022-11-12T03:14:45.691Z,9.70
2022-11-12T03:17:13.023Z,9.00
2022-11-12T03:19:40.312Z,9.00
2022-11-12T03:22:08.127Z,8.90
2022-11-12T03:24:35.415Z,8.90
2022-11-12T03:27:03.615Z,9.00
2022-11-12T03:37:17.514Z,9.60
2022-11-12T03:39:44.710Z,9.50
2022-11-12T03:42:12.485Z,9.60
2022-11-12T03:44:42.558Z,9.70
2022-11-12T03:47:10.074Z,9.80
2022-11-12T03:49:37.696Z,10.00
2022-11-12T03:52:05.974Z,10.20
2022-11-12T03:59:43.934Z,10.30
2022-11-12T04:02:13.936Z,9.70
2022-11-12T04:05:03.756Z,10.10
2022-11-12T04:07:48.545Z,10.20
2022-11-12T04:10:16.377Z,10.30
2022-11-12T04:13:01.466Z,10.40
2022-11-12T04:15:30.754Z,10.30
2022-11-12T04:31:08.078Z,9.20
2022-11-12T04:33:35.604Z,8.80
2022-11-12T04:36:02.919Z,8.50
2022-11-12T04:38:30.418Z,8.10
2022-11-12T04:41:15.827Z,7.20
2022-11-12T04:44:00.708Z,6.70
2022-11-12T04:46:30.516Z,6.60
2022-11-12T04:54:03.126Z,7.00
2022-11-12T04:56:31.096Z,7.50
2022-11-12T04:58:58.265Z,7.80
2022-11-12T05:01:27.084Z,7.90
2022-11-12T05:03:54.513Z,8.10
2022-11-12T05:06:39.899Z,8.20
2022-11-12T05:09:08.085Z,8.30
2022-11-12T05:11:36.028Z,8.30
2022-11-12T05:21:20.546Z,8.30
2022-11-12T05:23:48.316Z,8.60
2022-11-12T05:26:15.565Z,8.70
2022-11-12T05:28:42.989Z,8.80
2022-11-12T05:31:10.173Z,8.90
2022-11-12T05:33:37.773Z,8.90
2022-11-12T05:36:07.026Z,8.90
2022-11-12T05:42:11.212Z,8.90
2022-11-12T05:44:35.605Z,8.90
2022-11-12T05:47:02.914Z,9.00
2022-11-12T05:49:31.366Z,8.90
2022-11-12T05:51:58.688Z,8.90
2022-11-12T05:54:25.950Z,8.90
2022-11-12T05:56:54.864Z,8.80
2022-11-12T06:14:50.791Z,8.80
2022-11-12T06:17:18.773Z,8.70
2022-11-12T06:19:46.692Z,8.60
2022-11-12T06:22:14.324Z,8.60
2022-11-12T06:24:41.935Z,8.70
2022-11-12T06:27:09.366Z,8.70
2022-11-12T06:29:38.107Z,8.70
2022-11-12T06:37:11.186Z,8.80
2022-11-12T06:39:38.742Z,8.90
2022-11-12T06:42:06.005Z,9.00
2022-11-12T06:44:33.453Z,9.00
2022-11-12T06:47:01.771Z,9.00
2022-11-12T06:49:29.185Z,9.00
2022-11-12T06:51:56.541Z,9.00
2022-11-12T06:59:47.882Z,8.80
2022-11-12T07:02:15.553Z,8.80
2022-11-12T07:04:42.695Z,8.80
2022-11-12T07:07:10.978Z,8.60
2022-11-12T07:09:38.446Z,8.50
2022-11-12T07:12:06.734Z,8.60
2022-11-12T07:14:34.118Z,8.50
2022-11-12T07:17:02.726Z,8.40
2022-11-12T07:24:31.836Z,8.50
2022-11-12T07:26:59.445Z,8.60
2022-11-12T07:29:46.322Z,8.60
2022-11-12T07:32:15.093Z,8.60
2022-11-12T07:34:42.924Z,8.50
2022-11-12T07:37:10.252Z,8.40
2022-11-12T07:39:38.930Z,8.40
2022-11-12T07:47:14.886Z,8.40
2022-11-12T07:49:41.785Z,8.50
2022-11-12T07:52:09.126Z,8.50
2022-11-12T07:54:36.735Z,8.60
2022-11-12T07:57:04.185Z,8.70
2022-11-12T07:59:31.455Z,8.80
2022-11-12T08:01:58.823Z,8.80
2022-11-12T08:08:53.794Z,9.00
2022-11-12T08:11:21.451Z,9.10
2022-11-12T08:13:49.106Z,9.30
2022-11-12T08:16:16.348Z,9.40
2022-11-12T08:18:45.137Z,9.50
2022-11-12T08:21:14.379Z,9.50
2022-11-12T08:23:42.199Z,9.70
2022-11-12T08:30:39.615Z,9.80
2022-11-12T08:33:07.571Z,10.10
2022-11-12T08:35:38.936Z,10.20
2022-11-12T08:38:09.997Z,10.40
2022-11-12T08:40:38.637Z,10.50
2022-11-12T08:43:07.585Z,10.70
2022-11-12T08:45:37.326Z,10.80
2022-11-12T08:50:58.937Z,11.00
2022-11-12T08:53:28.523Z,11.20
2022-11-12T08:55:58.885Z,11.40
2022-11-12T08:58:30.216Z,11.50
2022-11-12T09:01:03.994Z,11.60
2022-11-12T09:03:32.814Z,11.70
2022-11-12T09:06:07.610Z,11.80
2022-11-12T09:11:25.427Z,11.90
2022-11-12T09:13:54.120Z,11.90
2022-11-12T09:16:23.768Z,11.90
2022-11-12T09:18:52.304Z,12.00
2022-11-12T09:21:24.228Z,12.00
2022-11-12T09:23:51.885Z,12.00
2022-11-12T09:26:19.956Z,12.00
2022-11-12T09:28:53.115Z,11.90
2022-11-12T09:34:05.395Z,12.10
2022-11-12T09:36:39.798Z,12.10
2022-11-12T09:39:08.997Z,12.10
2022-11-12T09:41:41.496Z,12.20
2022-11-12T09:44:11.705Z,12.20
2022-11-12T09:46:47.749Z,12.30
2022-11-12T09:49:21.487Z,12.40
2022-11-12T09:56:55.902Z,12.40
2022-11-12T09:59:28.607Z,12.20
2022-11-12T10:02:02.364Z,12.30
2022-11-12T10:04:47.559Z,12.50
2022-11-12T10:07:26.194Z,12.50
2022-11-12T10:10:02.892Z,12.70
2022-11-12T10:12:42.957Z,12.60
2022-11-12T10:18:34.997Z,12.80
2022-11-12T10:21:15.047Z,12.70
2022-11-12T10:23:46.113Z,12.80
2022-11-12T10:26:16.199Z,12.80
2022-11-12T10:28:49.266Z,12.30
2022-11-12T10:31:23.529Z,12.30
2022-11-12T10:34:04.469Z,12.40
2022-11-12T10:41:39.495Z,12.10
2022-11-12T10:44:15.078Z,12.20
2022-11-12T10:46:46.057Z,12.40
2022-11-12T10:49:25.299Z,12.50
2022-11-12T10:51:58.101Z,12.70
2022-11-12T10:54:33.051Z,12.80
2022-11-12T10:57:21.847Z,12.70
2022-11-12T11:05:41.128Z,11.80
2022-11-12T11:08:13.304Z,12.10
2022-11-12T11:10:43.225Z,12.60
2022-11-12T11:13:20.994Z,12.80
2022-11-12T11:16:01.757Z,13.10
2022-11-12T11:18:32.568Z,13.20
2022-11-12T11:21:14.884Z,13.30
2022-11-12T11:26:40.325Z,13.20
2022-11-12T11:29:25.906Z,13.40
2022-11-12T11:32:01.455Z,13.40
2022-11-12T11:34:38.897Z,13.40
2022-11-12T11:37:23.138Z,13.20
2022-11-12T11:40:03.758Z,13.40
2022-11-12T11:42:50.860Z,13.30
2022-11-12T11:50:29.983Z,13.00
2022-11-12T11:53:14.280Z,12.90
2022-11-12T11:56:05.808Z,13.00
2022-11-12T11:58:51.657Z,13.20
2022-11-12T12:01:25.466Z,13.40
2022-11-12T12:04:08.441Z,13.60
2022-11-12T12:06:50.885Z,13.50
2022-11-12T12:12:05.542Z,13.60
2022-11-12T12:14:45.834Z,13.40
2022-11-12T12:17:31.880Z,13.70
2022-11-12T12:20:18.072Z,13.40
2022-11-12T12:22:53.196Z,13.40
2022-11-12T12:25:25.993Z,13.40
2022-11-12T12:28:04.296Z,13.20
2022-11-12T12:35:43.939Z,12.80
2022-11-12T12:38:18.684Z,13.10
2022-11-12T12:40:54.093Z,13.40
2022-11-12T12:43:32.546Z,13.70
2022-11-12T12:46:00.937Z,13.20
2022-11-12T12:48:31.765Z,13.10
2022-11-12T12:51:01.539Z,13.40
2022-11-12T12:56:52.376Z,13.50
2022-11-12T12:59:30.044Z,13.60
2022-11-12T13:02:13.346Z,13.90
2022-11-12T13:04:56.136Z,13.30
2022-11-12T13:07:48.572Z,13.10
2022-11-12T13:10:53.314Z,13.40
2022-11-12T13:13:43.434Z,13.50
2022-11-12T13:25:00.166Z,13.00
2022-11-12T13:28:03.304Z,13.30
2022-11-12T13:31:02.839Z,13.50
2022-11-12T13:33:37.567Z,13.60
2022-11-12T13:36:25.584Z,13.40
2022-11-12T13:38:57.561Z,13.40
2022-11-12T13:41:46.576Z,13.30
2022-11-12T13:52:20.377Z,13.40
2022-11-12T13:54:48.420Z,13.40
2022-11-12T13:57:30.701Z,13.40
2022-11-12T14:00:21.625Z,13.40
2022-11-12T14:02:53.678Z,13.50
2022-11-12T14:05:24.690Z,13.50
2022-11-12T14:08:14.853Z,13.20
2022-11-12T14:10:50.268Z,12.90
2022-11-12T14:18:45.586Z,12.80
2022-11-12T14:21:18.301Z,12.90
2022-11-12T14:23:49.447Z,12.60
2022-11-12T14:26:36.555Z,12.70
2022-11-12T14:29:07.678Z,12.80
2022-11-12T14:31:38.635Z,12.80
2022-11-12T14:39:30.164Z,12.60
2022-11-12T14:41:59.772Z,12.60
2022-11-12T14:44:35.157Z,12.40
2022-11-12T14:47:02.806Z,12.10
2022-11-12T14:49:43.530Z,12.30
2022-11-12T14:52:16.238Z,12.20
2022-11-12T14:54:53.238Z,12.20
2022-11-12T14:57:24.196Z,12.10
2022-11-12T15:02:53.895Z,12.00
2022-11-12T15:05:24.621Z,12.10
2022-11-12T15:07:56.217Z,12.40
2022-11-12T15:10:36.161Z,12.20
2022-11-12T15:13:06.261Z,12.20
2022-11-12T15:15:36.927Z,12.10
2022-11-12T15:18:14.898Z,11.90
2022-11-12T15:20:42.935Z,11.80
2022-11-12T15:28:24.935Z,11.40
2022-11-12T15:31:02.147Z,11.40
2022-11-12T15:33:33.237Z,11.30
2022-11-12T15:36:03.797Z,11.20
2022-11-12T15:38:37.427Z,11.10
2022-11-12T15:41:07.430Z,11.00
2022-11-12T15:43:43.085Z,11.20
2022-11-12T15:46:15.217Z,11.10
2022-11-12T15:53:50.527Z,10.90
2022-11-12T15:56:23.804Z,10.60
2022-11-12T15:58:51.764Z,10.60
2022-11-12T16:01:19.794Z,10.50
2022-11-12T16:03:47.383Z,10.60
2022-11-12T16:06:14.720Z,10.80
2022-11-12T16:08:43.855Z,10.90
2022-11-12T16:13:57.058Z,10.90
2022-11-12T16:16:24.916Z,10.70
2022-11-12T16:18:54.892Z,10.70
2022-11-12T16:21:23.507Z,10.60
2022-11-12T16:23:53.637Z,10.80
2022-11-12T16:26:28.163Z,10.80
2022-11-12T16:28:58.567Z,10.60
2022-11-12T16:31:27.177Z,10.40
2022-11-12T16:39:03.245Z,10.00
2022-11-12T16:41:33.809Z,10.10
2022-11-12T16:44:02.934Z,10.20
2022-11-12T16:46:40.988Z,10.10
2022-11-12T16:49:15.845Z,10.10
2022-11-12T16:51:46.755Z,10.20
2022-11-12T16:54:17.265Z,10.50
2022-11-12T16:56:47.484Z,10.40
2022-11-12T17:01:55.695Z,10.40
2022-11-12T17:04:32.865Z,10.70
2022-11-12T17:07:05.789Z,10.60
2022-11-12T17:09:38.882Z,10.50
2022-11-12T17:12:14.206Z,10.40
2022-11-12T17:14:45.095Z,10.40
2022-11-12T17:17:18.938Z,10.70
2022-11-12T17:19:46.730Z,10.50
2022-11-12T17:27:25.408Z,10.40
2022-11-12T17:29:56.498Z,10.50
2022-11-12T17:32:35.314Z,10.50
2022-11-12T17:35:06.152Z,10.50
2022-11-12T17:37:35.307Z,10.50
2022-11-12T17:40:05.151Z,10.40
2022-11-12T17:42:39.578Z,10.30
2022-11-12T17:45:12.977Z,10.30
2022-11-12T17:52:46.730Z,10.50
2022-11-12T17:55:15.179Z,10.60
2022-11-12T17:57:46.989Z,10.90
2022-11-12T18:00:16.660Z,10.80
2022-11-12T18:02:44.132Z,10.80
2022-11-12T18:05:11.722Z,10.80
2022-11-12T18:07:39.298Z,10.60
2022-11-12T18:10:09.598Z,10.40
2022-11-12T18:17:45.318Z,10.30
2022-11-12T18:20:15.909Z,10.20
2022-11-12T18:22:45.146Z,10.20
2022-11-12T18:25:14.156Z,10.10
2022-11-12T18:27:45.558Z,10.30
2022-11-12T18:30:19.286Z,10.20
2022-11-12T18:32:52.316Z,10.00
2022-11-12T18:35:24.628Z,10.10
2022-11-12T18:37:59.060Z,10.00
2022-11-12T18:45:25.620Z,9.90
2022-11-12T18:47:56.046Z,10.30
2022-11-12T18:50:28.850Z,10.10
2022-11-12T18:53:00.064Z,9.90
2022-11-12T18:55:31.420Z,9.70
2022-11-12T18:57:59.140Z,9.90
2022-11-12T19:00:36.943Z,9.70
2022-11-12T19:03:07.960Z,9.60
2022-11-12T19:10:46.731Z,10.00
2022-11-12T19:13:19.073Z,10.10
2022-11-12T19:15:49.629Z,10.10
2022-11-12T19:18:18.027Z,10.20
2022-11-12T19:20:47.708Z,10.50
2022-11-12T19:23:17.931Z,10.90
2022-11-12T19:25:49.488Z,11.20
2022-11-12T19:33:25.957Z,11.60
2022-11-12T19:35:56.150Z,11.70
2022-11-12T19:38:26.677Z,11.70
2022-11-12T19:40:56.268Z,11.60
2022-11-12T19:43:27.039Z,11.70
2022-11-12T19:45:57.069Z,11.90
2022-11-12T19:48:28.301Z,11.90
2022-11-12T19:59:09.058Z,12.00
2022-11-12T20:01:36.963Z,11.90
2022-11-12T20:04:07.407Z,12.00
2022-11-12T20:06:38.790Z,11.90
2022-11-12T20:09:08.592Z,12.00
2022-11-12T20:11:36.379Z,12.00
2022-11-12T20:14:03.867Z,12.00
2022-11-12T20:16:33.222Z,12.10
2022-11-12T20:24:11.870Z,12.00
2022-11-12T20:26:40.535Z,11.80
2022-11-12T20:29:08.690Z,11.80
2022-11-12T20:31:39.528Z,11.80
2022-11-12T20:34:13.697Z,11.90
2022-11-12T20:36:43.189Z,12.10
2022-11-12T20:39:15.432Z,11.80
2022-11-12T20:46:57.337Z,11.10
2022-11-12T20:49:26.199Z,10.50
2022-11-12T20:51:54.482Z,10.10
2022-11-12T20:54:24.750Z,10.10
2022-11-12T20:56:53.555Z,10.10
2022-11-12T20:59:21.012Z,9.90
2022-11-12T21:01:48.488Z,10.00
2022-11-12T21:09:21.498Z,10.10
2022-11-12T21:11:51.938Z,10.40
2022-11-12T21:14:19.897Z,10.20
2022-11-12T21:16:48.526Z,10.50
2022-11-12T21:19:16.900Z,10.60
2022-11-12T21:21:47.210Z,10.40
2022-11-12T21:24:18.097Z,10.70
2022-11-12T21:26:51.500Z,10.80
2022-11-12T21:32:03.667Z,10.50
2022-11-12T21:38:19.220Z,9.90
2022-11-12T21:40:51.749Z,9.80
2022-11-12T21:43:42.865Z,9.70
2022-11-12T21:46:49.299Z,9.70
2022-11-12T21:49:37.329Z,9.70
2022-11-12T21:52:09.328Z,9.80
2022-11-12T21:54:50.327Z,9.80
2022-11-12T22:02:27.694Z,9.70
2022-11-12T22:04:56.010Z,9.80
2022-11-12T22:07:26.558Z,9.80
2022-11-12T22:09:57.917Z,9.70
2022-11-12T22:12:27.629Z,9.80
2022-11-12T22:14:56.672Z,10.00
2022-11-12T22:17:28.250Z,9.90
2022-11-12T22:19:57.752Z,10.00
2022-11-12T22:27:33.710Z,10.00
2022-11-12T22:30:01.937Z,10.50
2022-11-12T22:32:29.557Z,10.60
2022-11-12T22:34:57.589Z,10.50
2022-11-12T22:37:25.270Z,10.50
2022-11-12T22:39:53.116Z,10.60
2022-11-12T22:42:21.083Z,10.60
2022-11-12T22:44:50.293Z,10.80
2022-11-12T22:52:22.995Z,11.00
2022-11-12T22:54:51.490Z,11.00
2022-11-12T22:57:19.201Z,11.00
2022-11-12T22:59:47.209Z,11.10
2022-11-12T23:02:14.519Z,11.20
2022-11-12T23:04:42.868Z,11.20
2022-11-12T23:07:10.685Z,11.40
2022-11-12T23:09:39.058Z,11.40
2022-11-12T23:19:38.415Z,11.30
2022-11-12T23:22:08.026Z,11.50
2022-11-12T23:24:35.510Z,11.40
2022-11-12T23:27:03.678Z,11.20
2022-11-12T23:29:31.417Z,11.30
2022-11-12T23:31:58.968Z,11.10
2022-11-12T23:34:26.841Z,11.20
2022-11-12T23:36:58.285Z,11.20
2022-11-12T23:39:25.857Z,11.20
2022-11-12T23:46:58.292Z,11.10
2022-11-12T23:49:25.609Z,11.10
2022-11-12T23:51:53.107Z,11.00
2022-11-12T23:54:22.969Z,11.00
2022-11-12T23:56:50.408Z,10.90
2022-11-12T23:59:18.260Z,10.80
